Time;durP1;ratioP1;P1;durP2;ratioP2;P2;SDS_P1;SDS_P2;PMS_P1;PMS_P2;Temp;Humidity;BMP_temperature;BMP_pressure;BME280_temperature;BME280_humidity;BME280_pressure;Samples;Min_cycle;Max_cycle;Signal;HPM_P1;HPM_P2
2022/06/30 00:00:11;;;;;;;6.97;6.38;;;;;;;20.44;59.67;100572.75;5071913;28;20476;-25
2022/06/30 00:02:38;;;;;;;7.32;6.63;;;;;;;20.43;60.07;100576.34;5067059;28;20036;-27
2022/06/30 00:05:04;;;;;;;6.78;6.18;;;;;;;20.41;60.08;100570.22;5070435;28;20508;-25
2022/06/30 00:07:29;;;;;;;6.90;6.30;;;;;;;20.43;60.01;100568.31;5068352;28;20037;-25
2022/06/30 00:09:55;;;;;;;7.50;6.80;;;;;;;20.39;60.23;100567.63;5069235;28;20051;-25
2022/06/30 00:12:20;;;;;;;7.53;6.82;;;;;;;20.38;60.23;100565.91;5052742;28;20129;-24
2022/06/30 00:14:46;;;;;;;6.80;6.20;;;;;;;20.35;60.13;100563.38;5068681;28;20064;-25
2022/06/30 00:17:11;;;;;;;7.10;6.50;;;;;;;20.34;60.21;100569.69;5070077;28;20039;-25
2022/06/30 00:19:37;;;;;;;7.55;6.85;;;;;;;20.35;60.45;100577.66;5067943;28;20036;-25
2022/06/30 00:22:05;;;;;;;7.20;6.50;;;;;;;20.31;60.54;100573.38;5069222;28;20035;-25
2022/06/30 00:24:30;;;;;;;7.38;6.68;;;;;;;20.31;60.55;100578.72;5069349;28;20035;-25
2022/06/30 00:26:56;;;;;;;6.78;6.18;;;;;;;20.27;60.25;100579.81;5064800;28;20033;-25
2022/06/30 00:29:21;;;;;;;6.93;6.32;;;;;;;20.26;60.30;100583.47;5070164;28;20020;-25
2022/06/30 00:31:47;;;;;;;7.90;7.10;;;;;;;20.25;60.36;100574.53;5070084;28;20611;-25
2022/06/30 00:34:12;;;;;;;7.95;6.57;;;;;;;20.24;60.36;100585.38;5071267;28;20036;-25
2022/06/30 00:36:37;;;;;;;7.97;7.28;;;;;;;20.23;60.41;100580.94;5048887;28;20028;-25
2022/06/30 00:39:03;;;;;;;7.70;6.85;;;;;;;20.22;60.36;100585.44;5068554;28;20025;-25
2022/06/30 00:41:28;;;;;;;7.35;6.75;;;;;;;20.22;60.45;100588.13;5067275;28;20032;-25
2022/06/30 00:43:54;;;;;;;6.75;6.13;;;;;;;20.21;60.21;100593.53;5085693;28;20017;-25
2022/06/30 00:46:19;;;;;;;7.38;6.75;;;;;;;20.19;60.50;100587.38;5068425;28;20221;-25
2022/06/30 00:48:44;;;;;;;7.25;6.65;;;;;;;20.18;60.16;100601.72;5069807;28;20040;-25
2022/06/30 00:51:10;;;;;;;6.60;5.88;;;;;;;20.16;60.03;100591.09;5066507;28;20032;-25
2022/06/30 00:53:38;;;;;;;7.25;6.65;;;;;;;20.17;60.31;100589.28;5067744;28;20021;-25
2022/06/30 00:56:04;;;;;;;7.25;6.55;;;;;;;20.16;60.19;100587.53;5068767;28;20033;-25
2022/06/30 00:58:32;;;;;;;7.15;6.45;;;;;;;20.12;60.46;100577.00;5068793;28;20074;-26
2022/06/30 01:00:58;;;;;;;7.55;6.85;;;;;;;20.13;60.65;100573.38;5067686;28;20488;-25
2022/06/30 01:03:24;;;;;;;6.93;6.22;;;;;;;20.15;60.58;100580.47;5065835;28;20020;-25
2022/06/30 01:05:50;;;;;;;7.10;6.40;;;;;;;20.14;61.08;100582.25;5067559;28;20029;-25
2022/06/30 01:08:16;;;;;;;7.60;6.90;;;;;;;20.13;61.22;100577.84;5060593;28;20526;-25
2022/06/30 01:13:26;;;;;;;9.85;6.70;;;;;;;20.13;60.73;100573.38;5063153;28;20059;-25
2022/06/30 01:15:51;;;;;;;7.57;6.90;;;;;;;20.13;60.43;100575.19;5065772;28;20480;-25
2022/06/30 01:18:16;;;;;;;7.15;6.55;;;;;;;20.09;60.88;100574.50;5070619;28;20084;-25
2022/06/30 01:20:43;;;;;;;7.25;6.40;;;;;;;20.08;61.00;100569.22;5066229;28;20056;-25
2022/06/30 01:23:08;;;;;;;6.85;6.03;;;;;;;20.09;60.63;100577.16;5066093;28;20017;-25
2022/06/30 01:25:34;;;;;;;7.07;6.47;;;;;;;20.09;60.62;100565.56;5069411;28;20024;-25
2022/06/30 01:28:00;;;;;;;6.75;6.22;;;;;;;20.08;60.62;100570.06;5066346;28;20174;-25
2022/06/30 01:30:26;;;;;;;7.13;6.53;;;;;;;20.11;61.06;100569.06;5048207;28;20032;-25
2022/06/30 01:32:51;;;;;;;7.80;7.10;;;;;;;20.11;60.88;100571.72;5064527;28;20028;-25
2022/06/30 01:35:17;;;;;;;7.80;6.70;;;;;;;20.10;61.14;100572.66;5066565;28;20464;-25
2022/06/30 01:37:48;;;;;;;8.07;7.05;;;;;;;20.09;60.94;100566.47;5069095;28;20112;-25
2022/06/30 01:40:13;;;;;;;7.60;6.88;;;;;;;20.09;61.32;100558.44;5049079;28;20105;-25
2022/06/30 01:42:39;;;;;;;7.57;6.88;;;;;;;20.09;61.14;100561.09;5064496;28;20060;-25
2022/06/30 01:45:05;;;;;;;8.38;7.57;;;;;;;20.08;61.45;100554.00;5067918;28;20031;-25
2022/06/30 01:47:31;;;;;;;7.80;7.10;;;;;;;20.09;61.00;100550.41;5069066;28;20029;-25
2022/06/30 01:49:56;;;;;;;7.85;7.15;;;;;;;20.07;60.90;100552.28;5067974;28;20078;-26
2022/06/30 01:52:21;;;;;;;7.72;6.93;;;;;;;20.08;61.01;100547.78;5049287;28;20032;-25
2022/06/30 01:54:47;;;;;;;7.68;6.88;;;;;;;20.09;60.88;100545.03;5068220;28;20476;-25
2022/06/30 01:57:12;;;;;;;7.10;6.47;;;;;;;20.09;60.43;100542.38;5065455;28;20040;-25
2022/06/30 01:59:38;;;;;;;7.45;6.75;;;;;;;20.08;60.81;100543.28;5069047;28;20073;-25
2022/06/30 02:02:03;;;;;;;6.70;6.10;;;;;;;20.09;60.78;100538.81;5066774;28;20028;-25
2022/06/30 02:04:47;;;;;;;7.78;7.07;;;;;;;20.10;60.81;100537.84;5067679;28;20063;-25
2022/06/30 02:07:16;;;;;;;7.47;6.68;;;;;;;20.08;60.54;100537.94;5064833;28;20484;-25
2022/06/30 02:09:41;;;;;;;7.60;6.90;;;;;;;20.09;60.91;100536.13;5067635;28;20051;-25
2022/06/30 02:14:52;;;;;;;6.57;5.97;;;;;;;20.09;61.38;100528.97;5067314;28;20403;-25
2022/06/30 02:17:17;;;;;;;6.65;6.05;;;;;;;20.09;60.86;100518.28;5067660;28;20032;-28
2022/06/30 02:19:42;;;;;;;7.72;7.03;;;;;;;20.07;60.80;100517.47;5048786;28;20032;-25
2022/06/30 02:22:08;;;;;;;6.70;6.10;;;;;;;20.10;60.49;100519.13;5065810;28;20025;-25
2022/06/30 02:24:33;;;;;;;7.80;7.10;;;;;;;20.10;60.48;100524.47;5066701;28;21694;-25
2022/06/30 02:26:59;;;;;;;7.10;6.40;;;;;;;20.08;61.19;100515.66;5066557;28;20036;-25
2022/06/30 02:29:24;;;;;;;6.28;5.70;;;;;;;20.08;60.66;100516.50;5064777;28;20058;-25
2022/06/30 02:31:50;;;;;;;7.47;6.88;;;;;;;20.09;60.94;100517.38;5067990;28;20036;-25
2022/06/30 02:34:16;;;;;;;7.70;6.80;;;;;;;20.09;60.61;100518.28;5063765;28;20025;-25
2022/06/30 02:36:41;;;;;;;6.90;6.18;;;;;;;20.07;60.65;100514.78;5066546;28;20029;-25
2022/06/30 02:39:06;;;;;;;6.72;6.05;;;;;;;20.09;60.72;100514.72;5068596;28;20339;-25
2022/06/30 02:41:32;;;;;;;8.05;7.35;;;;;;;20.08;61.62;100511.16;5066927;28;20056;-25
2022/06/30 02:43:58;;;;;;;7.43;6.82;;;;;;;20.06;61.42;100502.38;5062961;28;20025;-26
2022/06/30 02:46:24;;;;;;;6.93;6.30;;;;;;;20.06;61.45;100497.00;5066263;28;20472;-25
2022/06/30 02:48:49;;;;;;;6.75;6.13;;;;;;;20.07;60.80;100500.56;5048737;28;20028;-25
2022/06/30 02:51:15;;;;;;;7.70;7.00;;;;;;;20.07;61.56;100506.75;5032821;28;20028;-25
2022/06/30 02:53:40;;;;;;;6.82;6.22;;;;;;;20.07;61.66;100508.59;5065826;28;20442;-25
2022/06/30 02:56:05;;;;;;;7.00;6.40;;;;;;;20.07;62.50;100508.59;5031616;28;20515;-25
2022/06/30 02:58:31;;;;;;;7.00;6.32;;;;;;;20.05;61.37;100506.00;5065027;28;20036;-25
2022/06/30 03:00:56;;;;;;;7.57;6.88;;;;;;;20.05;61.05;100494.41;5063977;28;20016;-26
2022/06/30 03:03:23;;;;;;;6.25;5.72;;;;;;;20.06;60.19;100507.72;5062804;28;20327;-25
2022/06/30 03:05:48;;;;;;;5.97;5.47;;;;;;;20.04;60.80;100501.56;5060977;28;20058;-25
2022/06/30 03:08:13;;;;;;;6.80;6.10;;;;;;;20.04;60.99;100498.88;5063680;28;20024;-25
2022/06/30 03:10:39;;;;;;;6.97;6.38;;;;;;;20.02;61.53;100494.56;5066071;28;20067;-25
2022/06/30 03:13:04;;;;;;;7.18;6.50;;;;;;;20.02;61.17;100489.22;5065596;28;20505;-24
2022/06/30 03:15:29;;;;;;;7.10;6.40;;;;;;;20.04;62.30;100485.50;5062269;28;20017;-25
2022/06/30 03:17:56;;;;;;;6.65;6.05;;;;;;;20.03;61.23;100489.13;5064533;28;20112;-25
2022/06/30 03:20:22;;;;;;;7.03;6.47;;;;;;;20.03;60.71;100488.25;5065617;28;20525;-25
2022/06/30 03:22:48;;;;;;;6.35;5.85;;;;;;;20.01;61.00;100499.06;5066530;28;20060;-24
2022/06/30 03:25:13;;;;;;;6.35;5.75;;;;;;;20.02;61.11;100499.91;5067528;28;20468;-24
2022/06/30 03:27:38;;;;;;;9.63;6.78;;;;;;;20.00;62.19;100491.97;5059109;28;20036;-25
2022/06/30 03:30:04;;;;;;;7.28;6.63;;;;;;;20.00;61.28;100491.97;5064975;28;20020;-24
2022/06/30 03:32:29;;;;;;;7.15;6.45;;;;;;;19.99;61.28;100500.91;5062572;28;20025;-25
2022/06/30 03:34:55;;;;;;;6.65;6.05;;;;;;;19.98;61.65;100496.50;5066160;28;20484;-24
2022/06/30 03:37:20;;;;;;;7.53;6.82;;;;;;;19.97;61.63;100498.31;5065136;28;20468;-25
2022/06/30 03:39:46;;;;;;;6.97;6.28;;;;;;;19.97;61.78;100500.13;5064009;28;20625;-25
2022/06/30 03:42:12;;;;;;;7.05;6.47;;;;;;;19.96;61.40;100493.03;5065027;28;20024;-25
2022/06/30 03:44:38;;;;;;;7.28;6.60;;;;;;;19.96;61.36;100498.38;5042025;28;20616;-27
2022/06/30 03:47:03;;;;;;;8.38;7.57;;;;;;;19.94;62.86;100500.28;5063678;28;20372;-25
2022/06/30 03:49:29;;;;;;;7.35;6.65;;;;;;;19.91;61.69;100508.47;5063103;28;20104;-27
2022/06/30 03:51:54;;;;;;;7.15;6.47;;;;;;;19.92;61.70;100515.56;5065471;28;20110;-26
2022/06/30 03:54:20;;;;;;;5.95;5.45;;;;;;;19.90;61.29;100514.78;5067008;28;20020;-27
2022/06/30 03:56:45;;;;;;;6.50;5.90;;;;;;;19.89;61.84;100505.88;5066606;28;20021;-27
2022/06/30 03:59:11;;;;;;;6.50;6.00;;;;;;;19.88;61.54;100509.50;5052554;28;20603;-25
2022/06/30 04:01:36;;;;;;;7.28;6.38;;;;;;;19.89;61.56;100516.56;5068635;28;20983;-26
2022/06/30 04:04:01;;;;;;;7.10;6.50;;;;;;;19.88;62.35;100514.84;5066612;28;20033;-27
2022/06/30 04:06:27;;;;;;;7.05;6.35;;;;;;;19.87;62.77;100497.03;5069073;28;20036;-26
2022/06/30 04:08:52;;;;;;;6.88;6.28;;;;;;;19.87;63.04;100507.75;5069187;28;20510;-26
2022/06/30 04:11:18;;;;;;;6.88;6.18;;;;;;;19.86;62.92;100508.69;5067289;28;20187;-26
2022/06/30 04:13:43;;;;;;;7.10;6.38;;;;;;;19.85;62.15;100507.81;5066460;28;20039;-26
2022/06/30 04:16:08;;;;;;;6.60;6.00;;;;;;;19.86;62.50;100514.06;5068769;28;20093;-26
2022/06/30 04:18:34;;;;;;;6.82;6.22;;;;;;;19.85;61.67;100521.19;5066778;28;20050;-26
2022/06/30 04:21:00;;;;;;;7.20;6.57;;;;;;;19.85;60.94;100523.88;5067599;28;20035;-26
2022/06/30 04:23:25;;;;;;;7.03;6.43;;;;;;;19.88;61.28;100518.38;5065968;28;20032;-26
2022/06/30 04:25:50;;;;;;;6.53;5.93;;;;;;;19.87;61.84;100519.34;5065262;28;20025;-25
2022/06/30 04:28:16;;;;;;;6.72;6.22;;;;;;;19.88;62.00;100521.06;5072350;28;20036;-26
2022/06/30 04:33:25;;;;;;;6.68;6.07;;;;;;;19.92;61.97;100524.47;5069034;28;21515;-26
2022/06/30 04:35:50;;;;;;;6.60;6.05;;;;;;;19.93;62.93;100530.66;5071517;28;20028;-26
2022/06/30 04:38:16;;;;;;;6.85;6.30;;;;;;;19.95;63.24;100526.09;5060827;28;20134;-26
2022/06/30 04:43:26;;;;;;;6.53;5.93;;;;;;;19.95;62.38;100521.63;5072009;28;20038;-26
2022/06/30 04:45:52;;;;;;;6.55;5.95;;;;;;;19.97;63.54;100518.84;5069412;28;20123;-26
2022/06/30 04:48:17;;;;;;;6.25;5.65;;;;;;;20.00;62.37;100530.31;5073134;28;20020;-24
2022/06/30 04:50:43;;;;;;;6.20;5.57;;;;;;;20.03;63.31;100523.94;5065863;28;20059;-26
2022/06/30 04:53:08;;;;;;;5.93;5.53;;;;;;;20.06;62.64;100534.47;5070886;28;20438;-26
2022/06/30 04:55:34;;;;;;;6.10;5.35;;;;;;;20.09;62.21;100526.31;5068420;28;20039;-26
2022/06/30 04:57:59;;;;;;;6.30;5.75;;;;;;;20.15;62.12;100513.53;5071401;28;20047;-26
2022/06/30 05:00:24;;;;;;;6.63;6.05;;;;;;;20.18;61.68;100521.41;5071253;28;20114;-26
2022/06/30 05:02:50;;;;;;;5.88;5.40;;;;;;;20.23;61.65;100524.69;5069306;28;20495;-27
2022/06/30 05:05:15;;;;;;;6.43;5.93;;;;;;;20.25;62.99;100528.19;5070022;28;20453;-25
2022/06/30 05:07:40;;;;;;;6.28;5.57;;;;;;;20.31;62.59;100525.16;5069799;28;20025;-26
2022/06/30 05:10:06;;;;;;;6.13;5.57;;;;;;;20.36;61.52;100525.81;5068135;28;20465;-26
2022/06/30 05:12:32;;;;;;;6.70;6.10;;;;;;;20.43;61.13;100520.09;5067125;28;20025;-26
2022/06/30 05:14:59;;;;;;;6.45;5.85;;;;;;;20.50;61.82;100524.19;5048089;28;20025;-26
2022/06/30 05:17:24;;;;;;;5.70;5.28;;;;;;;20.54;61.06;100523.06;5064182;28;20044;-26
2022/06/30 05:19:49;;;;;;;5.82;5.43;;;;;;;20.59;62.20;100518.34;5065953;28;20104;-26
2022/06/30 05:22:15;;;;;;;5.95;5.35;;;;;;;20.64;61.84;100513.59;5066110;28;20032;-26
2022/06/30 05:27:24;;;;;;;5.57;5.10;;;;;;;20.75;61.00;100518.38;5068860;28;20098;-26
2022/06/30 05:29:49;;;;;;;5.72;5.32;;;;;;;20.82;61.68;100520.72;5068923;28;20480;-26
2022/06/30 05:32:15;;;;;;;6.35;5.80;;;;;;;20.87;61.24;100524.88;5068288;28;20020;-26
2022/06/30 05:34:40;;;;;;;5.78;5.28;;;;;;;20.93;61.11;100522.84;5070322;28;20024;-26
2022/06/30 05:37:06;;;;;;;6.53;5.93;;;;;;;20.96;60.91;100526.22;5068960;28;20584;-26
2022/06/30 05:39:32;;;;;;;6.35;5.85;;;;;;;21.01;60.88;100515.25;5067295;28;20086;-26
2022/06/30 05:42:01;;;;;;;6.35;5.43;;;;;;;21.06;61.15;100515.84;5066378;28;20036;-26
2022/06/30 05:44:28;;;;;;;6.50;5.90;;;;;;;21.11;60.91;100521.81;5068933;28;20043;-26
2022/06/30 05:46:54;;;;;;;6.65;6.15;;;;;;;21.17;60.95;100522.44;5063921;28;20108;-26
2022/06/30 05:49:21;;;;;;;6.78;6.18;;;;;;;21.21;60.88;100524.84;5063732;28;20024;-26
2022/06/30 05:51:46;;;;;;;6.10;5.60;;;;;;;21.26;60.65;100519.22;5067643;28;20569;-26
2022/06/30 05:54:11;;;;;;;6.40;5.80;;;;;;;21.31;60.80;100517.16;5056323;28;20064;-26
2022/06/30 05:56:37;;;;;;;6.38;5.88;;;;;;;21.35;60.68;100512.47;5066642;28;20052;-26
2022/06/30 05:59:02;;;;;;;6.97;6.32;;;;;;;21.40;60.42;100521.97;5067241;28;20107;-26
2022/06/30 06:01:27;;;;;;;6.40;5.90;;;;;;;21.48;60.16;100534.09;5044927;28;20036;-26
2022/06/30 06:03:53;;;;;;;6.43;5.85;;;;;;;21.53;60.18;100534.69;5068489;28;20056;-26
2022/06/30 06:06:18;;;;;;;7.22;6.18;;;;;;;21.57;59.89;100528.19;5048912;28;20024;-26
2022/06/30 06:08:44;;;;;;;7.25;5.90;;;;;;;21.62;59.84;100531.47;5065598;28;20029;-26
2022/06/30 06:11:09;;;;;;;6.68;6.15;;;;;;;21.70;59.66;100524.81;5065573;28;20031;-24
2022/06/30 06:13:34;;;;;;;6.20;5.60;;;;;;;21.74;59.88;100523.69;5068420;28;20484;-26
2022/06/30 06:16:00;;;;;;;6.40;5.80;;;;;;;21.78;59.59;100519.88;5066107;28;20062;-26
2022/06/30 06:18:25;;;;;;;7.00;6.30;;;;;;;21.84;59.55;100507.91;5065756;28;20388;-26
2022/06/30 06:20:51;;;;;;;6.22;5.72;;;;;;;21.90;59.55;100513.78;5067626;28;20032;-26
2022/06/30 06:23:16;;;;;;;6.05;5.57;;;;;;;21.95;59.32;100504.56;5067743;28;20055;-26
2022/06/30 06:25:41;;;;;;;7.07;6.47;;;;;;;22.01;59.41;100506.91;5066322;28;20111;-27
2022/06/30 06:30:51;;;;;;;6.22;5.72;;;;;;;22.16;59.28;100516.72;5064907;28;20393;-26
2022/06/30 06:33:16;;;;;;;6.72;5.90;;;;;;;22.23;58.80;100510.94;5067989;28;20464;-26
2022/06/30 06:35:41;;;;;;;6.82;6.03;;;;;;;22.29;58.79;100519.53;5065238;28;20083;-25
2022/06/30 06:38:07;;;;;;;6.53;5.93;;;;;;;22.38;59.07;100515.38;5064259;28;20028;-26
2022/06/30 06:40:32;;;;;;;6.47;5.88;;;;;;;22.48;58.87;100528.25;5068845;28;20480;-25
2022/06/30 06:42:57;;;;;;;6.05;5.55;;;;;;;22.58;58.61;100524.09;5064579;28;20024;-24
2022/06/30 06:45:23;;;;;;;6.25;5.75;;;;;;;22.64;58.55;100525.53;5063748;28;20032;-25
2022/06/30 06:47:48;;;;;;;6.88;6.18;;;;;;;22.67;58.54;100525.31;5066320;28;20074;-24
2022/06/30 06:50:14;;;;;;;7.03;6.43;;;;;;;22.74;58.53;100529.34;5066543;28;20021;-24
2022/06/30 06:52:39;;;;;;;7.10;6.50;;;;;;;22.81;58.47;100530.69;5064125;28;20369;-24
2022/06/30 06:55:05;;;;;;;7.70;7.10;;;;;;;22.86;58.41;100525.03;5065684;28;20032;-25
2022/06/30 06:57:36;;;;;;;7.53;6.85;;;;;;;22.91;58.24;100514.84;5066764;28;20027;-24
2022/06/30 07:00:03;;;;;;;6.22;5.65;;;;;;;22.97;58.42;100512.72;5082100;28;20369;-24
2022/06/30 07:02:29;;;;;;;6.15;5.65;;;;;;;23.03;58.24;100512.31;5067474;28;20033;-24
2022/06/30 07:04:54;;;;;;;7.35;6.65;;;;;;;23.14;58.14;100506.25;5066615;28;20525;-27
2022/06/30 07:07:19;;;;;;;6.93;6.40;;;;;;;23.23;58.44;100507.47;5062991;28;20104;-27
2022/06/30 07:09:45;;;;;;;7.57;6.88;;;;;;;23.31;58.46;100507.84;5060343;28;20039;-26
2022/06/30 07:12:10;;;;;;;8.43;6.93;;;;;;;23.37;58.08;100509.31;5066432;28;20063;-27
2022/06/30 07:14:36;;;;;;;7.28;6.68;;;;;;;23.43;57.89;100509.75;5062045;28;20054;-26
2022/06/30 07:17:01;;;;;;;7.13;6.35;;;;;;;23.51;58.00;100511.06;5063150;28;20032;-25
2022/06/30 07:19:26;;;;;;;6.95;6.35;;;;;;;23.57;57.59;100506.13;5066171;28;20073;-25
2022/06/30 07:21:52;;;;;;;8.23;7.43;;;;;;;23.64;57.43;100503.88;5065141;28;20044;-25
2022/06/30 07:24:17;;;;;;;8.30;7.57;;;;;;;23.71;57.56;100507.91;5048640;28;20388;-27
2022/06/30 07:26:42;;;;;;;7.35;6.72;;;;;;;23.80;57.62;100508.22;5064385;28;20075;-24
2022/06/30 07:29:08;;;;;;;10.30;8.73;;;;;;;23.91;57.88;100513.75;5063307;28;20029;-26
2022/06/30 07:31:33;;;;;;;8.02;7.03;;;;;;;23.95;57.13;100509.88;5051684;28;20059;-25
2022/06/30 07:33:58;;;;;;;7.70;6.75;;;;;;;24.00;57.41;100511.41;5068633;28;20032;-26
2022/06/30 07:36:24;;;;;;;8.30;7.50;;;;;;;24.06;57.23;100505.59;5068446;28;20056;-25
2022/06/30 07:38:49;;;;;;;8.38;7.65;;;;;;;24.11;56.83;100495.38;5072455;28;20495;-26
2022/06/30 07:41:16;;;;;;;7.25;6.65;;;;;;;24.18;56.83;100502.06;5072334;28;20035;-27
2022/06/30 07:43:41;;;;;;;7.38;6.80;;;;;;;24.25;56.78;100505.22;5071732;28;20033;-24
2022/06/30 07:46:07;;;;;;;8.05;7.25;;;;;;;24.31;57.00;100504.78;5073804;28;20039;-24
2022/06/30 07:48:33;;;;;;;7.68;6.95;;;;;;;24.41;56.98;100504.97;5067414;28;20024;-25
2022/06/30 07:50:59;;;;;;;8.20;7.18;;;;;;;24.50;57.14;100503.47;5069999;28;20392;-25
2022/06/30 07:53:24;;;;;;;7.82;6.78;;;;;;;24.56;56.41;100502.19;5050624;28;20070;-25
2022/06/30 07:55:50;;;;;;;7.40;6.70;;;;;;;24.60;56.43;100498.28;5069964;28;20027;-24
2022/06/30 07:58:15;;;;;;;8.98;8.18;;;;;;;24.66;56.17;100496.97;5070153;28;20315;-25
2022/06/30 08:00:41;;;;;;;8.73;7.93;;;;;;;24.70;56.16;100493.97;5073369;28;20048;-24
2022/06/30 08:03:06;;;;;;;7.25;6.55;;;;;;;24.76;56.04;100492.66;5067951;28;20035;-24
2022/06/30 08:05:31;;;;;;;7.72;7.03;;;;;;;24.84;56.57;100495.66;5069417;28;20032;-24
2022/06/30 08:07:57;;;;;;;8.35;7.57;;;;;;;24.91;56.73;100495.25;5071146;28;20024;-24
2022/06/30 08:10:22;;;;;;;7.88;7.22;;;;;;;24.96;56.32;100498.47;5069898;28;20031;-27
2022/06/30 08:12:47;;;;;;;9.30;8.50;;;;;;;25.02;56.57;100503.44;5070370;28;20530;-24
2022/06/30 08:15:13;;;;;;;7.47;6.72;;;;;;;25.14;56.38;100500.81;5071517;28;20107;-24
2022/06/30 08:17:38;;;;;;;8.25;7.57;;;;;;;25.26;56.10;100504.41;5069177;28;20021;-24
2022/06/30 08:20:04;;;;;;;8.05;7.35;;;;;;;25.35;56.08;100509.13;5069766;28;20564;-24
2022/06/30 08:22:30;;;;;;;8.60;7.75;;;;;;;25.41;56.24;100508.66;5059313;28;20028;-24
2022/06/30 08:24:57;;;;;;;8.52;7.82;;;;;;;25.55;56.17;100514.88;5067850;28;20028;-24
2022/06/30 08:27:22;;;;;;;9.20;8.40;;;;;;;25.67;55.72;100499.63;5069607;28;20384;-25
2022/06/30 08:29:48;;;;;;;8.57;7.75;;;;;;;25.80;55.61;100504.94;5070380;28;20031;-27
2022/06/30 08:32:13;;;;;;;7.82;7.07;;;;;;;25.90;55.79;100503.25;5068935;28;20032;-24
2022/06/30 08:34:38;;;;;;;8.73;7.63;;;;;;;26.03;55.98;100499.59;5069198;28;20031;-24
2022/06/30 08:37:04;;;;;;;8.25;7.50;;;;;;;26.22;55.50;100499.91;5071090;28;20029;-24
2022/06/30 08:42:13;;;;;;;8.77;7.97;;;;;;;26.43;55.68;100485.69;5066397;28;20047;-24
2022/06/30 08:44:41;;;;;;;9.00;8.10;;;;;;;26.58;55.43;100486.31;5066143;28;20020;-24
2022/06/30 08:47:08;;;;;;;9.57;8.57;;;;;;;26.80;55.66;100489.97;5068638;28;20036;-24
2022/06/30 08:49:34;;;;;;;8.55;7.82;;;;;;;26.93;54.77;100487.13;5069122;28;20021;-24
2022/06/30 08:52:01;;;;;;;8.38;7.57;;;;;;;27.05;54.64;100476.31;5068926;28;20404;-24
2022/06/30 08:54:28;;;;;;;9.90;9.00;;;;;;;27.14;54.33;100478.28;5064531;28;20906;-24
2022/06/30 08:56:56;;;;;;;9.00;8.10;;;;;;;27.25;54.38;100478.25;5068656;28;20487;-24
2022/06/30 08:59:24;;;;;;;8.98;8.20;;;;;;;27.38;54.75;100474.50;5064576;28;20576;-25
2022/06/30 09:01:49;;;;;;;9.32;8.52;;;;;;;27.49;54.75;100471.75;5069717;28;20123;-25
2022/06/30 09:04:15;;;;;;;8.32;7.60;;;;;;;27.52;54.53;100474.19;5069264;28;20119;-26
2022/06/30 09:06:44;;;;;;;7.95;7.28;;;;;;;27.61;54.14;100468.97;5068911;28;20032;-24
2022/06/30 09:09:10;;;;;;;9.23;8.32;;;;;;;27.76;54.44;100475.81;5067658;28;20055;-25
2022/06/30 09:11:52;;;;;;;9.38;8.23;;;;;;;27.89;53.90;100474.75;5068557;28;20052;-24
2022/06/30 09:14:50;;;;;;;8.73;7.88;;;;;;;27.98;53.91;100465.84;5067879;28;20020;-25
2022/06/30 09:17:21;;;;;;;8.60;7.80;;;;;;;28.07;53.61;100471.47;5042428;28;20040;-24
2022/06/30 09:19:53;;;;;;;8.25;7.55;;;;;;;28.18;53.28;100463.25;5066912;28;20028;-25
2022/06/30 09:22:21;;;;;;;9.13;8.30;;;;;;;28.30;52.57;100462.19;5067251;28;20020;-25
2022/06/30 09:24:54;;;;;;;8.27;7.65;;;;;;;28.47;53.92;100467.13;5068650;28;20054;-25
2022/06/30 09:27:20;;;;;;;9.98;8.98;;;;;;;28.59;53.25;100468.72;5067276;28;20021;-24
2022/06/30 09:29:48;;;;;;;10.27;9.27;;;;;;;28.76;52.32;100467.22;5075183;28;20294;-24
2022/06/30 09:32:14;;;;;;;9.93;8.98;;;;;;;28.89;51.78;100475.13;5066839;28;20068;-24
2022/06/30 09:34:40;;;;;;;9.85;8.95;;;;;;;28.94;52.59;100463.84;5068482;28;20408;-25
2022/06/30 09:37:15;;;;;;;9.32;8.35;;;;;;;28.92;52.21;100463.16;5067436;28;20391;-24
2022/06/30 09:39:43;;;;;;;9.50;8.60;;;;;;;28.99;52.23;100458.88;5068560;28;20487;-24
2022/06/30 09:42:09;;;;;;;8.32;7.55;;;;;;;29.09;51.84;100452.59;5067597;28;20811;-25
2022/06/30 09:44:35;;;;;;;9.63;8.60;;;;;;;29.20;52.80;100458.75;5067639;28;20052;-24
2022/06/30 09:47:10;;;;;;;10.20;9.20;;;;;;;29.39;51.96;100456.19;5068226;28;20063;-24
2022/06/30 09:49:39;;;;;;;9.80;8.85;;;;;;;29.53;51.88;100458.50;5068718;28;20426;-25
2022/06/30 09:52:21;;;;;;;10.18;9.35;;;;;;;29.54;50.99;100453.94;5068957;28;20025;-24
2022/06/30 09:54:59;;;;;;;9.93;8.90;;;;;;;29.58;51.11;100445.34;5065350;28;20032;-24
2022/06/30 09:57:27;;;;;;;8.93;8.23;;;;;;;29.62;50.38;100442.34;5054167;28;20031;-25
2022/06/30 10:00:14;;;;;;;8.43;7.72;;;;;;;29.69;50.70;100446.19;5067597;28;20024;-26
2022/06/30 10:02:51;;;;;;;9.20;8.32;;;;;;;29.79;50.91;100440.75;5066382;28;20081;-26
2022/06/30 10:05:18;;;;;;;9.35;8.45;;;;;;;29.87;50.57;100432.72;5067785;28;20067;-26
2022/06/30 10:07:44;;;;;;;8.73;7.93;;;;;;;29.89;50.97;100435.28;5067020;28;20103;-27
2022/06/30 10:10:11;;;;;;;9.13;8.30;;;;;;;30.01;50.15;100422.38;5067791;28;20028;-27
2022/06/30 10:12:38;;;;;;;9.85;8.95;;;;;;;30.08;49.70;100424.34;5063626;28;20025;-25
2022/06/30 10:15:04;;;;;;;8.40;7.60;;;;;;;30.15;49.93;100421.94;5068611;28;20032;-26
2022/06/30 10:17:35;;;;;;;9.35;8.50;;;;;;;30.21;50.09;100425.94;5069308;28;20029;-27
2022/06/30 10:20:01;;;;;;;8.68;7.88;;;;;;;30.27;49.50;100417.16;5065825;28;20040;-27
2022/06/30 10:22:28;;;;;;;9.23;8.35;;;;;;;30.38;49.55;100417.97;5068786;28;20036;-27
2022/06/30 10:24:55;;;;;;;8.82;8.15;;;;;;;30.48;49.39;100418.78;5067410;28;20072;-25
2022/06/30 10:27:21;;;;;;;8.60;7.75;;;;;;;30.56;49.61;100420.75;5065622;28;20511;-25
2022/06/30 10:29:54;;;;;;;9.45;8.43;;;;;;;30.66;49.49;100420.69;5068114;28;20074;-25
2022/06/30 10:32:57;;;;;;;8.68;7.97;;;;;;;30.86;49.47;100424.19;5066406;28;20032;-25
2022/06/30 10:35:41;;;;;;;9.63;8.63;;;;;;;30.99;48.33;100410.19;5065802;28;20040;-25
2022/06/30 10:38:06;;;;;;;10.35;9.30;;;;;;;31.19;49.09;100418.19;5067031;28;20068;-25
2022/06/30 10:40:43;;;;;;;10.15;9.20;;;;;;;31.31;47.83;100400.59;5070115;28;20557;-25
2022/06/30 10:43:09;;;;;;;10.23;8.77;;;;;;;31.42;48.25;100405.00;5066443;28;20510;-25
2022/06/30 10:45:35;;;;;;;9.18;8.38;;;;;;;31.45;47.27;100406.53;5045239;28;20028;-25
2022/06/30 10:48:04;;;;;;;9.43;8.52;;;;;;;31.44;47.29;100400.22;5067293;28;20152;-25
2022/06/30 10:50:37;;;;;;;9.23;8.52;;;;;;;31.48;47.51;100398.06;5067353;28;20120;-25
2022/06/30 10:53:04;;;;;;;9.40;8.70;;;;;;;31.55;47.39;100395.53;5048894;28;20035;-24
2022/06/30 10:55:47;;;;;;;9.98;8.65;;;;;;;31.65;47.00;100395.44;5069886;28;20043;-27
2022/06/30 10:58:13;;;;;;;9.48;8.50;;;;;;;31.75;47.15;100393.47;5068876;28;20070;-27
2022/06/30 11:01:04;;;;;;;9.82;8.93;;;;;;;31.90;46.54;100396.47;5067923;28;20029;-27
2022/06/30 11:03:33;;;;;;;10.10;9.00;;;;;;;31.99;46.29;100394.66;5067005;28;20094;-26
2022/06/30 11:06:05;;;;;;;8.88;8.18;;;;;;;32.06;46.24;100395.72;5066094;28;20036;-27
2022/06/30 11:08:37;;;;;;;9.23;8.43;;;;;;;32.08;46.43;100388.22;5072263;28;20538;-26
2022/06/30 11:11:21;;;;;;;9.15;8.40;;;;;;;32.19;46.09;100386.22;5073803;28;20074;-27
2022/06/30 11:13:47;;;;;;;9.25;8.45;;;;;;;32.29;45.98;100381.50;5072499;28;20077;-26
2022/06/30 11:16:17;;;;;;;8.93;8.13;;;;;;;32.36;45.94;100385.28;5070485;28;20858;-27
2022/06/30 11:18:42;;;;;;;;;;;;;;;32.46;45.84;100379.72;5070225;28;20106;-27
2022/06/30 11:21:08;;;;;;;9.53;8.63;;;;;;;32.52;45.54;100378.22;5072940;28;19960;-27
2022/06/30 11:23:40;;;;;;;9.43;8.63;;;;;;;32.55;45.20;100377.03;5072972;28;20091;-27
2022/06/30 11:28:54;;;;;;;9.15;8.23;;;;;;;32.55;44.60;100377.88;5072294;28;20503;-27
2022/06/30 11:31:30;;;;;;;9.38;8.57;;;;;;;32.57;44.94;100373.09;5071546;28;20025;-27
2022/06/30 11:34:02;;;;;;;8.70;7.90;;;;;;;32.52;44.78;100375.47;5070574;28;20540;-27
2022/06/30 11:36:28;;;;;;;8.70;7.90;;;;;;;32.48;44.55;100374.09;5070029;28;20032;-27
2022/06/30 11:38:59;;;;;;;9.35;8.60;;;;;;;32.44;44.96;100369.97;5072177;28;20102;-26
2022/06/30 11:44:11;;;;;;;9.02;8.32;;;;;;;32.46;45.87;100366.09;5070172;28;20094;-27
2022/06/30 11:46:50;;;;;;;9.18;8.27;;;;;;;32.48;45.02;100371.38;5071742;28;20040;-27